Air Quality Table

TIMESTAMP NO2 SO2 O3 PM10 PM2.5 CO TEMP HUM AIRPRES WS WD NO BENZENE
2022-11-30 12:00 65.64 µg/m3 0.95 µg/m3 21.53 µg/m3 12.83 µg/m3 8.78 µg/m3 0.42 mg/m3 13.55 °C 79.06 % 1,007.93 mbar 1.01 m/s 212.4 Deg 30.34 µg/m3 4.15 µg/m3
2022-11-30 11:00 74.83 µg/m3 1.3 µg/m3 11.39 µg/m3 14.71 µg/m3 10.11 µg/m3 0.58 mg/m3 13.3 °C 80.78 % 1,008.45 mbar 0.85 m/s 281.97 Deg 59.7 µg/m3 5.77 µg/m3
2022-11-30 10:00 82.66 µg/m3 1.53 µg/m3 7.19 µg/m3 16.05 µg/m3 11.51 µg/m3 0.61 mg/m3 13.12 °C 82.68 % 1,008.32 mbar 0.83 m/s 271.33 Deg 69.03 µg/m3 6.19 µg/m3
2022-11-30 09:00 82.81 µg/m3 1.82 µg/m3 9.58 µg/m3 13.07 µg/m3 12.34 µg/m3 0.74 mg/m3 12.47 °C 87.49 % 1,008.01 mbar 1.31 m/s 228.13 Deg 88.29 µg/m3 9.71 µg/m3
2022-11-30 08:00 86.58 µg/m3 1.93 µg/m3 5.1 µg/m3 13.89 µg/m3 13.57 µg/m3 0.85 mg/m3 12.37 °C 89.81 % 1,007.81 mbar 0.59 m/s 231.04 Deg 99.27 µg/m3 5.67 µg/m3
2022-11-30 07:00 68.72 µg/m3 1.03 µg/m3 9.84 µg/m3 8.3 µg/m3 8.02 µg/m3 0.56 mg/m3 12.46 °C 89.35 % 1,007.51 mbar 0.64 m/s 236.41 Deg 45.14 µg/m3 2.62 µg/m3
2022-11-30 06:00 33.86 µg/m3 0.49 µg/m3 42.46 µg/m3 3.58 µg/m3 3.48 µg/m3 0.29 mg/m3 11.97 °C 87.47 % 1,007.46 mbar 0.68 m/s 232.18 Deg 5.79 µg/m3 1.84 µg/m3
2022-11-30 05:00 19.23 µg/m3 0.51 µg/m3 37.65 µg/m3 7.99 µg/m3 7.89 µg/m3 0.22 mg/m3 12.35 °C 88.22 % 1,006.91 mbar 1.4 m/s 237.23 Deg 2.9 µg/m3 2.62 µg/m3
2022-11-30 04:00 25.08 µg/m3 0.53 µg/m3 25.88 µg/m3 8.03 µg/m3 7.97 µg/m3 0.21 mg/m3 12.67 °C 87 % 1,006.76 mbar 0.94 m/s 234.75 Deg 1.72 µg/m3 1.89 µg/m3
2022-11-30 03:00 25.92 µg/m3 0.42 µg/m3 26.65 µg/m3 6.74 µg/m3 6.68 µg/m3 0.22 mg/m3 13.22 °C 85.65 % 1,006.81 mbar 0.89 m/s 236.92 Deg 1.4 µg/m3 1.63 µg/m3
2022-11-30 02:00 19.03 µg/m3 0.44 µg/m3 36.93 µg/m3 5.5 µg/m3 5.46 µg/m3 0.22 mg/m3 13 °C 88.42 % 1,006.84 mbar 0.94 m/s 239.45 Deg 0.38 µg/m3 1.57 µg/m3
2022-11-30 01:00 17.67 µg/m3 0.37 µg/m3 49.54 µg/m3 4.44 µg/m3 4.38 µg/m3 0.23 mg/m3 12.73 °C 89.65 % 1,007.11 mbar 1.09 m/s 239.5 Deg 0.58 µg/m3 1.42 µg/m3
2022-11-30 00:00 17.84 µg/m3 0.36 µg/m3 56.03 µg/m3 3.81 µg/m3 3.71 µg/m3 0.23 mg/m3 12.57 °C 88.66 % 1,007.47 mbar 1.16 m/s 235.22 Deg 0.91 µg/m3 1.47 µg/m3
2022-11-29 23:00 21.79 µg/m3 0.51 µg/m3 55.55 µg/m3 4.47 µg/m3 4.36 µg/m3 0.25 mg/m3 12.68 °C 84.53 % 1,007.37 mbar 1.4 m/s 233.13 Deg 1.06 µg/m3 1.89 µg/m3
2022-11-29 22:00 26.24 µg/m3 0.43 µg/m3 58.25 µg/m3 6.21 µg/m3 6.09 µg/m3 0.26 mg/m3 12.96 °C 83.01 % 1,007.32 mbar 1.52 m/s 246.83 Deg 3.46 µg/m3 5.77 µg/m3
2022-11-29 21:00 76.39 µg/m3 1.31 µg/m3 6.99 µg/m3 15.51 µg/m3 15.2 µg/m3 0.77 mg/m3 13.14 °C 88.62 % 1,006.96 mbar 0.73 m/s 261.82 Deg 51.33 µg/m3 10.29 µg/m3
2022-11-29 20:00 77.83 µg/m3 1.41 µg/m3 14.46 µg/m3 13.88 µg/m3 13.09 µg/m3 0.9 mg/m3 13.72 °C 85.62 % 1,006.66 mbar 1.12 m/s 249.77 Deg 73.14 µg/m3 2.52 µg/m3
2022-11-29 19:00 41.57 µg/m3 0.73 µg/m3 48.36 µg/m3 7.49 µg/m3 6.45 µg/m3 0.4 mg/m3 13.45 °C 82.07 % 1,006.64 mbar 1.92 m/s 132.87 Deg 21.67 µg/m3 2.2 µg/m3
2022-11-29 18:00 31.96 µg/m3 0.61 µg/m3 60.16 µg/m3 10.66 µg/m3 9 µg/m3 0.3 mg/m3 12.54 °C 82.13 % 1,006.57 mbar 2.76 m/s 164.1 Deg 13.85 µg/m3 4.83 µg/m3
2022-11-29 17:00 67.44 µg/m3 1.11 µg/m3 24.93 µg/m3 17.77 µg/m3 12.83 µg/m3 0.53 mg/m3 13.71 °C 82.62 % 1,006.17 mbar 1.61 m/s 281.43 Deg 46.7 µg/m3 2.26 µg/m3
2022-11-29 16:00 26.12 µg/m3 0.72 µg/m3 64.44 µg/m3 9.73 µg/m3 7.11 µg/m3 0.34 mg/m3 15.56 °C 79.41 % 1,006.07 mbar 3.8 m/s 48.6 Deg 28.78 µg/m3 2.15 µg/m3
2022-11-29 15:00 34.06 µg/m3 0.75 µg/m3 57.96 µg/m3 10.53 µg/m3 7.69 µg/m3 0.33 mg/m3 15.49 °C 80.03 % 1,006.19 mbar 3.24 m/s 63.83 Deg 30.78 µg/m3 2.05 µg/m3

It is to be noted that the data is provisional and subject to quality assurance procedures. For validated data kindly refer your request to contact.air@era.org.mt